»·PEaware :: N1718G KTVL-KMRY

N1718G :: KTVL-KMRY

FLIGHT INFORMATION

Flight Status: Arrived
Operator: Privately registered:
United States
More flights under this callsign
Pilot: Spencer M. (27733)
Aircraft: BEECH AIRCRAFT BARON
(BE58)
More flights by this aircraft type
Origin: KTVL Lake Tahoe
United States
Destination: KMRY Monterey Peninsula
United States
More flights between these airports :: More routes between these airports
Route: +RICHY6 SPOOK V113 MOD V111 SNS
File this flight plan on PilotEdge
Remarks:
Altitude:
(Current/Filed)
16,000ft
Speed:
(Current/Filed)
240kts
Departed: 28-Sep-20 09:45 AM
Arrived: 28-Sep-20 11:11 AM
Distance/Time
Traveled:
164nm/1:26
Distance/Time
To Go:
Arrived

Flight Plot

Page will automatically refresh every two minutes.

Flight plan parsing failed; only flown route is shown


Map Options




Map Legend


Flown Route
Filed Route
Departure Airport
Arrival Airport
Navaid (VOR, NDB)
Fix

Horizontal Profiles

Position Reports

Time Latitude Longitude Heading Altitude Ground
Speed
28-Sep-20 09:38 38.893442 -119.997644 44 6267ft 0kts
28-Sep-20 09:39 38.893024 -119.997279 194 6267ft 5kts
28-Sep-20 09:40 38.890773 -119.997256 192 6267ft 16kts
28-Sep-20 09:41 38.885286 -119.998877 191 6267ft 21kts
28-Sep-20 09:42 38.882674 -119.999426 128 6267ft 0kts
28-Sep-20 09:42 38.882674 -119.999426 128 6267ft 0kts
28-Sep-20 09:44 38.882672 -119.999422 127 6267ft 0kts
28-Sep-20 09:45 38.885319 -119.997814 13 6267ft 60kts
28-Sep-20 09:45 38.910319 -119.991173 5 6710ft 132kts
28-Sep-20 09:47 38.952447 -120.004957 344 8240ft 136kts
28-Sep-20 09:47 38.982848 -120.016784 346 9241ft 137kts
28-Sep-20 09:48 39.014614 -120.041920 321 10304ft 142kts
28-Sep-20 09:50 39.047055 -120.086187 322 11462ft 150kts
28-Sep-20 09:50 39.071234 -120.119366 323 12238ft 154kts
28-Sep-20 09:51 39.100473 -120.159542 323 13173ft 153kts
28-Sep-20 09:52 39.129260 -120.199126 324 14067ft 150kts
28-Sep-20 09:53 39.157607 -120.238118 324 14922ft 149kts
28-Sep-20 09:54 39.183974 -120.279016 288 15739ft 162kts
28-Sep-20 09:55 39.153815 -120.299377 116 16024ft 152kts
28-Sep-20 09:56 39.154375 -120.245411 90 16041ft 163kts
28-Sep-20 09:57 39.125624 -120.195055 126 16045ft 184kts
28-Sep-20 09:58 39.090214 -120.146970 125 16042ft 185kts
28-Sep-20 09:59 39.054912 -120.098501 126 16039ft 186kts
28-Sep-20 10:00 39.019545 -120.049733 126 16037ft 187kts
28-Sep-20 10:01 38.970836 -120.036958 204 16045ft 212kts
28-Sep-20 10:02 38.918935 -120.072657 207 16038ft 211kts
28-Sep-20 10:03 38.867804 -120.107363 207 16034ft 204kts
28-Sep-20 10:04 38.818037 -120.140745 207 16035ft 200kts
28-Sep-20 10:05 38.768883 -120.173702 207 16036ft 199kts
28-Sep-20 10:06 38.719711 -120.206623 207 16036ft 199kts
28-Sep-20 10:07 38.670666 -120.239405 207 16036ft 199kts
28-Sep-20 10:08 38.623608 -120.276549 225 15994ft 201kts
28-Sep-20 10:09 38.585013 -120.328508 227 15933ft 201kts
28-Sep-20 10:10 38.546314 -120.380480 227 15848ft 202kts
28-Sep-20 10:11 38.507401 -120.432533 227 15753ft 203kts
28-Sep-20 10:12 38.468644 -120.484591 227 15695ft 201kts
28-Sep-20 10:13 38.431261 -120.534090 226 16048ft 184kts
28-Sep-20 10:14 38.394831 -120.582687 227 16024ft 194kts
28-Sep-20 10:15 38.357213 -120.632732 227 16023ft 197kts
28-Sep-20 10:16 38.319143 -120.683119 226 16022ft 197kts
28-Sep-20 10:17 38.280934 -120.733644 226 16021ft 198kts
28-Sep-20 10:18 38.242821 -120.783974 226 16013ft 198kts
28-Sep-20 10:19 38.204519 -120.834462 226 16012ft 198kts
28-Sep-20 10:20 38.166255 -120.884682 224 16012ft 198kts
28-Sep-20 10:21 38.127304 -120.934460 225 16012ft 198kts
28-Sep-20 10:22 38.089077 -120.984658 226 16007ft 198kts
28-Sep-20 10:23 38.038173 -121.000808 174 15994ft 197kts
28-Sep-20 10:24 37.983486 -120.994499 173 15998ft 197kts
28-Sep-20 10:25 37.928695 -120.988564 174 15986ft 198kts
28-Sep-20 10:26 37.873757 -120.982883 174 15979ft 198kts
28-Sep-20 10:27 37.819097 -120.977267 174 15976ft 197kts
28-Sep-20 10:28 37.764320 -120.971646 174 15973ft 197kts
28-Sep-20 10:29 37.709503 -120.966027 174 15972ft 197kts
28-Sep-20 10:30 37.654942 -120.960442 174 15972ft 197kts
28-Sep-20 10:31 37.602507 -120.973925 207 15972ft 198kts
28-Sep-20 10:32 37.554165 -121.007115 208 16000ft 198kts
28-Sep-20 10:33 37.506097 -121.039960 209 16018ft 196kts
28-Sep-20 10:34 37.457998 -121.072525 209 16018ft 196kts
28-Sep-20 10:35 37.410319 -121.104733 209 16018ft 195kts
28-Sep-20 10:36 37.362591 -121.136929 210 16018ft 193kts
28-Sep-20 10:37 37.315345 -121.168755 210 16018ft 192kts
28-Sep-20 10:38 37.268326 -121.200382 209 16018ft 191kts
28-Sep-20 10:39 37.221480 -121.231846 209 16016ft 190kts
28-Sep-20 10:40 37.174123 -121.263689 210 15661ft 204kts
28-Sep-20 10:41 37.122585 -121.298280 209 14815ft 214kts
28-Sep-20 10:42 37.070125 -121.333234 209 14025ft 211kts
28-Sep-20 10:43 37.022461 -121.365032 206 13157ft 181kts
28-Sep-20 10:44 36.978581 -121.394149 202 12229ft 180kts
28-Sep-20 10:45 36.933669 -121.424244 201 11232ft 185kts
28-Sep-20 10:46 36.888238 -121.454423 201 10025ft 190kts
28-Sep-20 10:47 36.840550 -121.486112 202 9201ft 195kts
28-Sep-20 10:48 36.792374 -121.518015 203 8422ft 197kts
28-Sep-20 10:49 36.744168 -121.549863 203 8001ft 194kts
28-Sep-20 10:50 36.696942 -121.581197 203 8001ft 190kts
28-Sep-20 10:51 36.650682 -121.596098 154 7873ft 166kts
28-Sep-20 10:52 36.607581 -121.573001 152 7229ft 172kts
28-Sep-20 10:53 36.563388 -121.549100 152 6578ft 174kts
28-Sep-20 10:54 36.518894 -121.525243 152 6107ft 173kts
28-Sep-20 10:55 36.474518 -121.501106 144 6099ft 173kts
28-Sep-20 10:56 36.453320 -121.452637 109 6100ft 155kts
28-Sep-20 10:57 36.450157 -121.404454 45 6101ft 147kts
28-Sep-20 10:58 36.480723 -121.422378 266 6102ft 167kts
28-Sep-20 10:59 36.465958 -121.475577 265 6096ft 154kts
28-Sep-20 11:00 36.477918 -121.524366 296 5723ft 148kts
28-Sep-20 11:01 36.493364 -121.570191 295 5194ft 147kts
28-Sep-20 11:02 36.508724 -121.615981 296 4610ft 136kts
28-Sep-20 11:03 36.522610 -121.656853 295 3927ft 103kts
28-Sep-20 11:04 36.532820 -121.688574 300 3129ft 93kts
28-Sep-20 11:05 36.542921 -121.717635 297 2700ft 93kts
28-Sep-20 11:06 36.553994 -121.746601 295 2004ft 91kts
28-Sep-20 11:07 36.563745 -121.775210 295 1761ft 90kts
28-Sep-20 11:08 36.572864 -121.802632 292 965ft 86kts
28-Sep-20 11:09 36.582056 -121.829708 292 410ft 83kts
28-Sep-20 11:10 36.587177 -121.845376 267 258ft 19kts

Navigation Log

Ident Type
Flight plan parsing failed, navigation log unavailable